Pleasant Prairie, Wisconsin
Current Conditions -  °F | °C
As of 4:53 AM on Friday 24 Oct 2014 (Local Time) from KENW Reporting Station
Haze Haze  
Wind Chill: 50°   Ceiling: 1300
Heat Index: 50°   Visibility: 5mi
Dew Point: 48°   Wind: 3mph
Humidity: 93%   Direction: 200°SSW
Pressure: 30.04"   Gusts: NA
Location:  42.53°N, 87.85°W
Report Text: KENW 240953Z AUTO 20003KT 5SM BR OVC013 10/09 A3004 RMK AO2 SLP176 T01000089 $
Loading
Personal Weather Stations






























Interactive Weather Map
Tropical Storm Tracking
New forecast layout! Learn more

10-Day Weather Forecast

Advertisements
Track Severe Weather on mobile